sensor_id;sensor_type;location;lat;lon;timestamp;temperature;humidity
47779;DHT22;33538;48.432;11.350;2023-06-14T00:01:53;17.80;55.20
47779;DHT22;33538;48.432;11.350;2023-06-14T00:04:20;17.80;55.40
47779;DHT22;33538;48.432;11.350;2023-06-14T00:06:47;17.90;55.10
47779;DHT22;33538;48.432;11.350;2023-06-14T00:09:15;17.90;55.30
47779;DHT22;33538;48.432;11.350;2023-06-14T00:11:41;17.80;55.40
47779;DHT22;33538;48.432;11.350;2023-06-14T00:14:08;17.80;55.20
47779;DHT22;33538;48.432;11.350;2023-06-14T00:16:35;17.70;55.60
47779;DHT22;33538;48.432;11.350;2023-06-14T00:19:02;17.70;55.60
47779;DHT22;33538;48.432;11.350;2023-06-14T00:21:29;17.70;55.70
47779;DHT22;33538;48.432;11.350;2023-06-14T00:23:57;17.70;55.70
47779;DHT22;33538;48.432;11.350;2023-06-14T00:26:26;17.60;55.90
47779;DHT22;33538;48.432;11.350;2023-06-14T00:28:53;17.50;55.80
47779;DHT22;33538;48.432;11.350;2023-06-14T00:31:20;17.50;56.20
47779;DHT22;33538;48.432;11.350;2023-06-14T00:33:46;17.50;56.20
47779;DHT22;33538;48.432;11.350;2023-06-14T00:36:14;17.50;56.10
47779;DHT22;33538;48.432;11.350;2023-06-14T00:38:41;17.50;55.70
47779;DHT22;33538;48.432;11.350;2023-06-14T00:41:08;17.40;56.00
47779;DHT22;33538;48.432;11.350;2023-06-14T00:43:36;17.40;56.50
47779;DHT22;33538;48.432;11.350;2023-06-14T00:46:02;17.40;56.50
47779;DHT22;33538;48.432;11.350;2023-06-14T00:48:30;17.40;56.30
47779;DHT22;33538;48.432;11.350;2023-06-14T00:50:57;17.40;56.20
47779;DHT22;33538;48.432;11.350;2023-06-14T00:53:24;17.30;56.30
47779;DHT22;33538;48.432;11.350;2023-06-14T00:55:51;17.40;55.90
47779;DHT22;33538;48.432;11.350;2023-06-14T00:58:18;17.40;55.80
47779;DHT22;33538;48.432;11.350;2023-06-14T01:00:47;17.30;55.80
47779;DHT22;33538;48.432;11.350;2023-06-14T01:03:13;17.30;55.60
47779;DHT22;33538;48.432;11.350;2023-06-14T01:05:41;17.30;55.60
47779;DHT22;33538;48.432;11.350;2023-06-14T01:08:17;17.30;55.60
47779;DHT22;33538;48.432;11.350;2023-06-14T01:10:50;17.30;55.80
47779;DHT22;33538;48.432;11.350;2023-06-14T01:13:21;17.20;55.80
47779;DHT22;33538;48.432;11.350;2023-06-14T01:15:50;17.20;55.90
47779;DHT22;33538;48.432;11.350;2023-06-14T01:18:17;17.10;56.50
47779;DHT22;33538;48.432;11.350;2023-06-14T01:20:45;17.20;56.70
47779;DHT22;33538;48.432;11.350;2023-06-14T01:23:14;17.10;56.30
47779;DHT22;33538;48.432;11.350;2023-06-14T01:25:40;17.00;56.20
47779;DHT22;33538;48.432;11.350;2023-06-14T01:28:08;17.00;56.30
47779;DHT22;33538;48.432;11.350;2023-06-14T01:30:35;17.00;56.30
47779;DHT22;33538;48.432;11.350;2023-06-14T01:33:03;16.90;56.70
47779;DHT22;33538;48.432;11.350;2023-06-14T01:35:31;16.90;56.80
47779;DHT22;33538;48.432;11.350;2023-06-14T01:37:58;16.90;56.60
47779;DHT22;33538;48.432;11.350;2023-06-14T01:40:28;16.80;56.60
47779;DHT22;33538;48.432;11.350;2023-06-14T01:42:55;16.90;56.40
47779;DHT22;33538;48.432;11.350;2023-06-14T01:45:22;16.90;56.20
47779;DHT22;33538;48.432;11.350;2023-06-14T01:47:49;16.90;56.10
47779;DHT22;33538;48.432;11.350;2023-06-14T01:50:16;16.90;56.40
47779;DHT22;33538;48.432;11.350;2023-06-14T01:52:45;16.80;56.50
47779;DHT22;33538;48.432;11.350;2023-06-14T01:55:12;16.80;56.70
47779;DHT22;33538;48.432;11.350;2023-06-14T01:57:40;16.70;57.00
47779;DHT22;33538;48.432;11.350;2023-06-14T02:00:07;16.70;56.80
47779;DHT22;33538;48.432;11.350;2023-06-14T02:02:34;16.70;56.70
47779;DHT22;33538;48.432;11.350;2023-06-14T02:05:01;16.70;56.50
47779;DHT22;33538;48.432;11.350;2023-06-14T02:07:28;16.80;56.40
47779;DHT22;33538;48.432;11.350;2023-06-14T02:09:55;16.70;56.40
47779;DHT22;33538;48.432;11.350;2023-06-14T02:12:22;16.70;56.40
47779;DHT22;33538;48.432;11.350;2023-06-14T02:14:50;16.70;56.60
47779;DHT22;33538;48.432;11.350;2023-06-14T02:17:17;16.70;56.70
47779;DHT22;33538;48.432;11.350;2023-06-14T02:19:44;16.70;56.80
47779;DHT22;33538;48.432;11.350;2023-06-14T02:22:11;16.60;56.90
47779;DHT22;33538;48.432;11.350;2023-06-14T02:24:37;16.50;57.10
47779;DHT22;33538;48.432;11.350;2023-06-14T02:27:05;16.50;57.00
47779;DHT22;33538;48.432;11.350;2023-06-14T02:29:31;16.50;57.10
47779;DHT22;33538;48.432;11.350;2023-06-14T02:31:59;16.40;57.10
47779;DHT22;33538;48.432;11.350;2023-06-14T02:34:26;16.40;57.10
47779;DHT22;33538;48.432;11.350;2023-06-14T02:36:53;16.40;57.10
47779;DHT22;33538;48.432;11.350;2023-06-14T02:39:20;16.30;57.10
47779;DHT22;33538;48.432;11.350;2023-06-14T02:41:47;16.30;57.00
47779;DHT22;33538;48.432;11.350;2023-06-14T02:44:13;16.30;56.60
47779;DHT22;33538;48.432;11.350;2023-06-14T02:46:40;15.90;57.20
47779;DHT22;33538;48.432;11.350;2023-06-14T02:49:08;16.10;57.10
47779;DHT22;33538;48.432;11.350;2023-06-14T02:51:35;16.30;57.10
47779;DHT22;33538;48.432;11.350;2023-06-14T02:54:02;16.30;56.80
47779;DHT22;33538;48.432;11.350;2023-06-14T02:56:29;16.40;56.60
47779;DHT22;33538;48.432;11.350;2023-06-14T02:58:56;16.40;56.30
47779;DHT22;33538;48.432;11.350;2023-06-14T03:01:25;16.30;56.70
47779;DHT22;33538;48.432;11.350;2023-06-14T03:03:52;16.30;56.90
47779;DHT22;33538;48.432;11.350;2023-06-14T03:06:20;16.30;57.10
47779;DHT22;33538;48.432;11.350;2023-06-14T03:08:46;16.30;56.80
47779;DHT22;33538;48.432;11.350;2023-06-14T03:11:13;16.30;57.10
47779;DHT22;33538;48.432;11.350;2023-06-14T03:13:40;16.10;57.50
47779;DHT22;33538;48.432;11.350;2023-06-14T03:16:07;16.10;57.60
47779;DHT22;33538;48.432;11.350;2023-06-14T03:18:34;16.00;57.70
47779;DHT22;33538;48.432;11.350;2023-06-14T03:21:00;16.00;57.60
47779;DHT22;33538;48.432;11.350;2023-06-14T03:23:29;15.90;57.50
47779;DHT22;33538;48.432;11.350;2023-06-14T03:25:55;15.80;58.30
47779;DHT22;33538;48.432;11.350;2023-06-14T03:28:22;15.80;58.10
47779;DHT22;33538;48.432;11.350;2023-06-14T03:30:49;15.90;57.60
47779;DHT22;33538;48.432;11.350;2023-06-14T03:33:16;15.90;57.50
47779;DHT22;33538;48.432;11.350;2023-06-14T03:35:43;15.90;57.90
47779;DHT22;33538;48.432;11.350;2023-06-14T03:38:10;15.80;58.10
47779;DHT22;33538;48.432;11.350;2023-06-14T03:40:38;15.90;57.90
47779;DHT22;33538;48.432;11.350;2023-06-14T03:43:05;15.90;57.90
47779;DHT22;33538;48.432;11.350;2023-06-14T03:45:31;15.90;58.00
47779;DHT22;33538;48.432;11.350;2023-06-14T03:47:58;15.80;58.40
47779;DHT22;33538;48.432;11.350;2023-06-14T03:50:25;15.80;58.70
47779;DHT22;33538;48.432;11.350;2023-06-14T03:52:52;15.80;58.20
47779;DHT22;33538;48.432;11.350;2023-06-14T03:55:19;15.90;58.20
47779;DHT22;33538;48.432;11.350;2023-06-14T03:57:50;15.90;58.00
47779;DHT22;33538;48.432;11.350;2023-06-14T04:00:17;15.90;57.90
47779;DHT22;33538;48.432;11.350;2023-06-14T04:02:44;15.90;58.50
47779;DHT22;33538;48.432;11.350;2023-06-14T04:05:11;15.70;59.10
47779;DHT22;33538;48.432;11.350;2023-06-14T04:07:39;15.70;59.50
47779;DHT22;33538;48.432;11.350;2023-06-14T04:10:06;15.60;59.40
47779;DHT22;33538;48.432;11.350;2023-06-14T04:12:33;15.70;59.10
47779;DHT22;33538;48.432;11.350;2023-06-14T04:15:02;15.70;59.10
47779;DHT22;33538;48.432;11.350;2023-06-14T04:17:47;15.70;59.10
47779;DHT22;33538;48.432;11.350;2023-06-14T04:20:14;15.60;58.90
47779;DHT22;33538;48.432;11.350;2023-06-14T04:22:41;15.70;58.80
47779;DHT22;33538;48.432;11.350;2023-06-14T04:25:08;15.70;59.00
47779;DHT22;33538;48.432;11.350;2023-06-14T04:27:35;15.70;58.70
47779;DHT22;33538;48.432;11.350;2023-06-14T04:30:04;15.80;58.40
47779;DHT22;33538;48.432;11.350;2023-06-14T04:32:31;15.80;58.60
47779;DHT22;33538;48.432;11.350;2023-06-14T04:34:58;15.70;59.60
47779;DHT22;33538;48.432;11.350;2023-06-14T04:37:25;15.60;59.80
47779;DHT22;33538;48.432;11.350;2023-06-14T04:39:52;15.70;59.70
47779;DHT22;33538;48.432;11.350;2023-06-14T04:42:19;15.80;59.40
47779;DHT22;33538;48.432;11.350;2023-06-14T04:44:46;15.80;59.00
47779;DHT22;33538;48.432;11.350;2023-06-14T04:47:14;15.70;59.90
47779;DHT22;33538;48.432;11.350;2023-06-14T04:49:40;15.70;59.80
47779;DHT22;33538;48.432;11.350;2023-06-14T04:52:07;15.70;59.50
47779;DHT22;33538;48.432;11.350;2023-06-14T04:54:34;15.80;59.80
47779;DHT22;33538;48.432;11.350;2023-06-14T04:57:01;15.70;59.70
47779;DHT22;33538;48.432;11.350;2023-06-14T04:59:28;15.70;60.30
47779;DHT22;33538;48.432;11.350;2023-06-14T05:01:54;15.80;60.50
47779;DHT22;33538;48.432;11.350;2023-06-14T05:04:23;15.70;60.20
47779;DHT22;33538;48.432;11.350;2023-06-14T05:06:49;15.60;60.10
47779;DHT22;33538;48.432;11.350;2023-06-14T05:09:16;15.40;61.00
47779;DHT22;33538;48.432;11.350;2023-06-14T05:11:43;15.20;61.70
47779;DHT22;33538;48.432;11.350;2023-06-14T05:14:10;15.30;61.50
47779;DHT22;33538;48.432;11.350;2023-06-14T05:16:37;15.50;61.90
47779;DHT22;33538;48.432;11.350;2023-06-14T05:19:04;15.70;61.50
47779;DHT22;33538;48.432;11.350;2023-06-14T05:21:32;15.80;61.30
47779;DHT22;33538;48.432;11.350;2023-06-14T05:24:06;15.90;61.40
47779;DHT22;33538;48.432;11.350;2023-06-14T05:26:33;16.00;61.50
47779;DHT22;33538;48.432;11.350;2023-06-14T05:29:00;16.00;61.50
47779;DHT22;33538;48.432;11.350;2023-06-14T05:31:27;16.10;61.80
47779;DHT22;33538;48.432;11.350;2023-06-14T05:33:54;16.00;61.50
47779;DHT22;33538;48.432;11.350;2023-06-14T05:36:21;16.10;61.20
47779;DHT22;33538;48.432;11.350;2023-06-14T05:38:49;16.10;61.10
47779;DHT22;33538;48.432;11.350;2023-06-14T05:41:16;16.10;60.70
47779;DHT22;33538;48.432;11.350;2023-06-14T05:43:43;16.20;61.40
47779;DHT22;33538;48.432;11.350;2023-06-14T05:46:10;16.20;61.10
47779;DHT22;33538;48.432;11.350;2023-06-14T05:48:36;16.30;60.00
47779;DHT22;33538;48.432;11.350;2023-06-14T05:51:03;16.40;60.10
47779;DHT22;33538;48.432;11.350;2023-06-14T05:53:30;16.40;60.00
47779;DHT22;33538;48.432;11.350;2023-06-14T05:55:58;16.50;59.30
47779;DHT22;33538;48.432;11.350;2023-06-14T05:58:25;16.50;59.30
47779;DHT22;33538;48.432;11.350;2023-06-14T06:00:52;16.60;59.30
47779;DHT22;33538;48.432;11.350;2023-06-14T06:03:18;16.60;59.30
47779;DHT22;33538;48.432;11.350;2023-06-14T06:05:45;16.60;59.50
47779;DHT22;33538;48.432;11.350;2023-06-14T06:08:12;16.70;59.50
47779;DHT22;33538;48.432;11.350;2023-06-14T06:10:39;16.70;59.10
47779;DHT22;33538;48.432;11.350;2023-06-14T06:13:07;16.70;59.20
47779;DHT22;33538;48.432;11.350;2023-06-14T06:15:37;16.70;59.30
47779;DHT22;33538;48.432;11.350;2023-06-14T06:18:04;16.70;59.20
47779;DHT22;33538;48.432;11.350;2023-06-14T06:20:31;16.80;59.10
47779;DHT22;33538;48.432;11.350;2023-06-14T06:22:58;16.80;58.80
47779;DHT22;33538;48.432;11.350;2023-06-14T06:25:25;16.80;59.00
47779;DHT22;33538;48.432;11.350;2023-06-14T06:27:52;16.90;59.20
47779;DHT22;33538;48.432;11.350;2023-06-14T06:30:20;16.90;58.90
47779;DHT22;33538;48.432;11.350;2023-06-14T06:32:47;17.00;58.80
47779;DHT22;33538;48.432;11.350;2023-06-14T06:35:14;17.00;58.50
47779;DHT22;33538;48.432;11.350;2023-06-14T06:37:42;17.00;58.90
47779;DHT22;33538;48.432;11.350;2023-06-14T06:40:09;17.10;58.50
47779;DHT22;33538;48.432;11.350;2023-06-14T06:42:36;17.10;58.50
47779;DHT22;33538;48.432;11.350;2023-06-14T06:45:04;17.10;58.30
47779;DHT22;33538;48.432;11.350;2023-06-14T06:47:32;17.10;58.30
47779;DHT22;33538;48.432;11.350;2023-06-14T06:49:59;17.20;58.10
47779;DHT22;33538;48.432;11.350;2023-06-14T06:52:25;17.20;57.80
47779;DHT22;33538;48.432;11.350;2023-06-14T06:54:52;17.30;57.80
47779;DHT22;33538;48.432;11.350;2023-06-14T06:57:19;17.30;57.70
47779;DHT22;33538;48.432;11.350;2023-06-14T06:59:46;17.30;57.50
47779;DHT22;33538;48.432;11.350;2023-06-14T07:02:12;17.40;57.60
47779;DHT22;33538;48.432;11.350;2023-06-14T07:04:41;17.40;57.30
47779;DHT22;33538;48.432;11.350;2023-06-14T07:07:07;17.50;57.10
47779;DHT22;33538;48.432;11.350;2023-06-14T07:09:34;17.50;57.00
47779;DHT22;33538;48.432;11.350;2023-06-14T07:12:01;17.50;56.90
47779;DHT22;33538;48.432;11.350;2023-06-14T07:14:28;17.60;57.30
47779;DHT22;33538;48.432;11.350;2023-06-14T07:16:55;17.60;57.10
47779;DHT22;33538;48.432;11.350;2023-06-14T07:19:21;17.60;57.20
47779;DHT22;33538;48.432;11.350;2023-06-14T07:21:50;17.60;57.10
47779;DHT22;33538;48.432;11.350;2023-06-14T07:24:16;17.70;57.10
47779;DHT22;33538;48.432;11.350;2023-06-14T07:26:43;17.70;57.00
47779;DHT22;33538;48.432;11.350;2023-06-14T07:29:10;17.80;57.40
47779;DHT22;33538;48.432;11.350;2023-06-14T07:31:37;17.80;57.00
47779;DHT22;33538;48.432;11.350;2023-06-14T07:34:04;17.80;57.10
47779;DHT22;33538;48.432;11.350;2023-06-14T07:36:31;17.90;57.10
47779;DHT22;33538;48.432;11.350;2023-06-14T07:38:59;17.90;57.40
47779;DHT22;33538;48.432;11.350;2023-06-14T07:41:25;18.00;57.10
47779;DHT22;33538;48.432;11.350;2023-06-14T07:43:52;18.00;57.20
47779;DHT22;33538;48.432;11.350;2023-06-14T07:46:19;18.10;57.30
47779;DHT22;33538;48.432;11.350;2023-06-14T07:48:46;18.10;57.30
47779;DHT22;33538;48.432;11.350;2023-06-14T07:51:13;18.10;57.30
47779;DHT22;33538;48.432;11.350;2023-06-14T07:53:40;18.10;57.30
47779;DHT22;33538;48.432;11.350;2023-06-14T07:56:08;18.20;57.40
47779;DHT22;33538;48.432;11.350;2023-06-14T07:58:35;18.20;57.50
47779;DHT22;33538;48.432;11.350;2023-06-14T08:01:02;18.30;57.40
47779;DHT22;33538;48.432;11.350;2023-06-14T08:03:28;18.30;57.40
47779;DHT22;33538;48.432;11.350;2023-06-14T08:05:55;18.30;57.40
47779;DHT22;33538;48.432;11.350;2023-06-14T08:08:22;18.30;57.40
47779;DHT22;33538;48.432;11.350;2023-06-14T08:10:49;18.40;57.40
47779;DHT22;33538;48.432;11.350;2023-06-14T08:13:17;18.40;57.40
47779;DHT22;33538;48.432;11.350;2023-06-14T08:15:45;18.50;57.50
47779;DHT22;33538;48.432;11.350;2023-06-14T08:18:12;18.50;57.40
47779;DHT22;33538;48.432;11.350;2023-06-14T08:20:39;18.50;57.60
47779;DHT22;33538;48.432;11.350;2023-06-14T08:23:06;18.50;57.40
47779;DHT22;33538;48.432;11.350;2023-06-14T08:25:33;18.60;57.50
47779;DHT22;33538;48.432;11.350;2023-06-14T08:28:00;18.60;57.40
47779;DHT22;33538;48.432;11.350;2023-06-14T08:30:28;18.70;57.40
47779;DHT22;33538;48.432;11.350;2023-06-14T08:32:55;18.70;57.40
47779;DHT22;33538;48.432;11.350;2023-06-14T08:35:40;18.70;57.40
47779;DHT22;33538;48.432;11.350;2023-06-14T08:38:06;18.70;57.40
47779;DHT22;33538;48.432;11.350;2023-06-14T08:40:37;18.70;57.40
47779;DHT22;33538;48.432;11.350;2023-06-14T08:43:04;18.70;57.40
47779;DHT22;33538;48.432;11.350;2023-06-14T08:45:32;18.80;57.30
47779;DHT22;33538;48.432;11.350;2023-06-14T08:47:59;18.80;57.30
47779;DHT22;33538;48.432;11.350;2023-06-14T08:50:27;18.80;57.30
47779;DHT22;33538;48.432;11.350;2023-06-14T08:53:00;18.90;57.30
47779;DHT22;33538;48.432;11.350;2023-06-14T08:55:27;18.90;57.30
47779;DHT22;33538;48.432;11.350;2023-06-14T08:57:56;18.90;57.30
47779;DHT22;33538;48.432;11.350;2023-06-14T09:00:23;19.00;57.20
47779;DHT22;33538;48.432;11.350;2023-06-14T09:02:52;19.00;57.20
47779;DHT22;33538;48.432;11.350;2023-06-14T09:05:19;19.00;57.20
47779;DHT22;33538;48.432;11.350;2023-06-14T09:07:46;19.10;57.10
47779;DHT22;33538;48.432;11.350;2023-06-14T09:10:14;19.10;57.20
47779;DHT22;33538;48.432;11.350;2023-06-14T09:12:42;19.10;57.10
47779;DHT22;33538;48.432;11.350;2023-06-14T09:15:09;19.20;57.10
47779;DHT22;33538;48.432;11.350;2023-06-14T09:17:37;19.20;57.10
47779;DHT22;33538;48.432;11.350;2023-06-14T09:20:06;19.20;57.00
47779;DHT22;33538;48.432;11.350;2023-06-14T09:22:34;19.30;57.10
47779;DHT22;33538;48.432;11.350;2023-06-14T09:25:00;19.30;57.20
47779;DHT22;33538;48.432;11.350;2023-06-14T09:27:28;19.30;57.10
47779;DHT22;33538;48.432;11.350;2023-06-14T09:29:55;19.30;57.20
47779;DHT22;33538;48.432;11.350;2023-06-14T09:32:22;19.40;57.20
47779;DHT22;33538;48.432;11.350;2023-06-14T09:34:49;19.40;57.20
47779;DHT22;33538;48.432;11.350;2023-06-14T09:37:28;19.50;57.20
47779;DHT22;33538;48.432;11.350;2023-06-14T09:39:55;19.50;57.20
47779;DHT22;33538;48.432;11.350;2023-06-14T09:42:23;19.50;57.20
47779;DHT22;33538;48.432;11.350;2023-06-14T09:44:50;19.50;57.20
47779;DHT22;33538;48.432;11.350;2023-06-14T09:47:17;19.60;57.30
47779;DHT22;33538;48.432;11.350;2023-06-14T09:49:44;19.60;57.30
47779;DHT22;33538;48.432;11.350;2023-06-14T09:52:14;19.60;57.20
47779;DHT22;33538;48.432;11.350;2023-06-14T09:54:43;19.60;56.20
47779;DHT22;33538;48.432;11.350;2023-06-14T09:57:11;19.70;56.50
47779;DHT22;33538;48.432;11.350;2023-06-14T09:59:41;19.70;56.70
47779;DHT22;33538;48.432;11.350;2023-06-14T10:02:11;19.70;56.80
47779;DHT22;33538;48.432;11.350;2023-06-14T10:04:42;19.70;56.90
47779;DHT22;33538;48.432;11.350;2023-06-14T10:07:11;19.70;56.70
47779;DHT22;33538;48.432;11.350;2023-06-14T10:09:39;19.70;56.80
47779;DHT22;33538;48.432;11.350;2023-06-14T10:12:08;19.80;56.80
47779;DHT22;33538;48.432;11.350;2023-06-14T10:14:34;19.80;56.80
47779;DHT22;33538;48.432;11.350;2023-06-14T10:17:06;19.80;56.80
47779;DHT22;33538;48.432;11.350;2023-06-14T10:19:37;19.80;56.60
47779;DHT22;33538;48.432;11.350;2023-06-14T10:22:10;19.90;56.70
47779;DHT22;33538;48.432;11.350;2023-06-14T10:24:41;19.90;56.60
47779;DHT22;33538;48.432;11.350;2023-06-14T10:27:13;19.90;56.50
47779;DHT22;33538;48.432;11.350;2023-06-14T10:30:04;19.90;56.50
47779;DHT22;33538;48.432;11.350;2023-06-14T10:32:32;19.90;56.30
47779;DHT22;33538;48.432;11.350;2023-06-14T10:35:00;20.00;56.30
47779;DHT22;33538;48.432;11.350;2023-06-14T10:37:28;20.00;56.30
47779;DHT22;33538;48.432;11.350;2023-06-14T10:39:55;20.00;56.20
47779;DHT22;33538;48.432;11.350;2023-06-14T10:42:27;20.00;56.20
47779;DHT22;33538;48.432;11.350;2023-06-14T10:44:55;20.10;56.20
47779;DHT22;33538;48.432;11.350;2023-06-14T10:47:28;20.10;56.00
47779;DHT22;33538;48.432;11.350;2023-06-14T10:49:55;20.10;56.00
47779;DHT22;33538;48.432;11.350;2023-06-14T10:52:26;20.10;55.90
47779;DHT22;33538;48.432;11.350;2023-06-14T10:55:01;20.10;55.90
47779;DHT22;33538;48.432;11.350;2023-06-14T10:57:29;20.20;55.80
47779;DHT22;33538;48.432;11.350;2023-06-14T11:00:02;20.20;55.80
47779;DHT22;33538;48.432;11.350;2023-06-14T11:02:51;20.20;55.70
47779;DHT22;33538;48.432;11.350;2023-06-14T11:05:24;20.20;55.70
47779;DHT22;33538;48.432;11.350;2023-06-14T11:08:02;20.30;55.70
47779;DHT22;33538;48.432;11.350;2023-06-14T11:10:36;20.30;55.70
47779;DHT22;33538;48.432;11.350;2023-06-14T11:13:05;20.40;55.70
47779;DHT22;33538;48.432;11.350;2023-06-14T11:15:32;20.40;55.70
47779;DHT22;33538;48.432;11.350;2023-06-14T11:18:00;20.40;55.60
47779;DHT22;33538;48.432;11.350;2023-06-14T11:20:30;20.40;55.40
47779;DHT22;33538;48.432;11.350;2023-06-14T11:22:57;20.50;55.60
47779;DHT22;33538;48.432;11.350;2023-06-14T11:25:25;20.50;55.50
47779;DHT22;33538;48.432;11.350;2023-06-14T11:27:52;20.50;55.60
47779;DHT22;33538;48.432;11.350;2023-06-14T11:30:20;20.50;55.50
47779;DHT22;33538;48.432;11.350;2023-06-14T11:32:47;20.50;55.50
47779;DHT22;33538;48.432;11.350;2023-06-14T11:35:15;20.50;55.50
47779;DHT22;33538;48.432;11.350;2023-06-14T11:37:43;20.60;55.60
47779;DHT22;33538;48.432;11.350;2023-06-14T11:40:11;20.60;55.60
47779;DHT22;33538;48.432;11.350;2023-06-14T11:42:40;20.60;55.60
47779;DHT22;33538;48.432;11.350;2023-06-14T11:45:08;20.60;55.60
47779;DHT22;33538;48.432;11.350;2023-06-14T11:47:38;20.60;55.50
47779;DHT22;33538;48.432;11.350;2023-06-14T11:50:06;20.60;55.50
47779;DHT22;33538;48.432;11.350;2023-06-14T11:52:34;20.60;55.40
47779;DHT22;33538;48.432;11.350;2023-06-14T11:55:01;20.60;55.40
47779;DHT22;33538;48.432;11.350;2023-06-14T11:57:28;20.60;55.40
47779;DHT22;33538;48.432;11.350;2023-06-14T11:59:55;20.60;55.30
47779;DHT22;33538;48.432;11.350;2023-06-14T12:02:22;20.60;55.30
47779;DHT22;33538;48.432;11.350;2023-06-14T12:04:52;20.60;55.40
47779;DHT22;33538;48.432;11.350;2023-06-14T12:07:22;20.60;55.20
47779;DHT22;33538;48.432;11.350;2023-06-14T12:10:04;20.70;55.30
47779;DHT22;33538;48.432;11.350;2023-06-14T12:12:31;20.60;55.20
47779;DHT22;33538;48.432;11.350;2023-06-14T12:15:02;20.60;55.20
47779;DHT22;33538;48.432;11.350;2023-06-14T12:17:32;20.70;55.30
47779;DHT22;33538;48.432;11.350;2023-06-14T12:20:05;20.70;54.90
47779;DHT22;33538;48.432;11.350;2023-06-14T12:22:32;20.70;54.90
47779;DHT22;33538;48.432;11.350;2023-06-14T12:24:59;20.70;54.90
47779;DHT22;33538;48.432;11.350;2023-06-14T12:27:26;20.70;55.00
47779;DHT22;33538;48.432;11.350;2023-06-14T12:29:59;20.70;54.90
47779;DHT22;33538;48.432;11.350;2023-06-14T12:32:26;20.70;54.90
47779;DHT22;33538;48.432;11.350;2023-06-14T12:34:53;20.70;54.90
47779;DHT22;33538;48.432;11.350;2023-06-14T12:37:21;20.80;55.00
47779;DHT22;33538;48.432;11.350;2023-06-14T12:39:48;20.80;54.90
47779;DHT22;33538;48.432;11.350;2023-06-14T12:42:14;20.80;54.80
47779;DHT22;33538;48.432;11.350;2023-06-14T12:44:41;20.80;55.50
47779;DHT22;33538;48.432;11.350;2023-06-14T12:47:08;20.80;54.50
47779;DHT22;33538;48.432;11.350;2023-06-14T12:49:35;20.90;54.20
47779;DHT22;33538;48.432;11.350;2023-06-14T12:52:01;20.90;53.60
47779;DHT22;33538;48.432;11.350;2023-06-14T12:54:30;20.90;53.90
47779;DHT22;33538;48.432;11.350;2023-06-14T12:57:07;20.90;53.90
47779;DHT22;33538;48.432;11.350;2023-06-14T12:59:33;20.90;53.80
47779;DHT22;33538;48.432;11.350;2023-06-14T13:02:11;20.90;53.80
47779;DHT22;33538;48.432;11.350;2023-06-14T13:04:38;21.00;53.50
47779;DHT22;33538;48.432;11.350;2023-06-14T13:07:05;21.00;53.10
47779;DHT22;33538;48.432;11.350;2023-06-14T13:09:33;21.00;53.60
47779;DHT22;33538;48.432;11.350;2023-06-14T13:12:00;21.00;53.60
47779;DHT22;33538;48.432;11.350;2023-06-14T13:14:27;21.10;53.00
47779;DHT22;33538;48.432;11.350;2023-06-14T13:16:53;21.10;52.80
47779;DHT22;33538;48.432;11.350;2023-06-14T13:19:20;21.10;53.10
47779;DHT22;33538;48.432;11.350;2023-06-14T13:21:48;21.10;53.20
47779;DHT22;33538;48.432;11.350;2023-06-14T13:24:14;21.00;53.30
47779;DHT22;33538;48.432;11.350;2023-06-14T13:26:43;21.00;53.20
47779;DHT22;33538;48.432;11.350;2023-06-14T13:29:10;21.00;53.30
47779;DHT22;33538;48.432;11.350;2023-06-14T13:31:36;21.00;53.40
47779;DHT22;33538;48.432;11.350;2023-06-14T13:34:03;21.00;53.50
47779;DHT22;33538;48.432;11.350;2023-06-14T13:36:30;21.00;53.40
47779;DHT22;33538;48.432;11.350;2023-06-14T13:38:57;21.00;53.40
47779;DHT22;33538;48.432;11.350;2023-06-14T13:41:25;21.00;53.50
47779;DHT22;33538;48.432;11.350;2023-06-14T13:43:53;21.00;53.60
47779;DHT22;33538;48.432;11.350;2023-06-14T13:46:20;21.10;53.20
47779;DHT22;33538;48.432;11.350;2023-06-14T13:48:47;21.20;53.00
47779;DHT22;33538;48.432;11.350;2023-06-14T13:51:14;21.20;53.30
47779;DHT22;33538;48.432;11.350;2023-06-14T13:53:41;21.20;53.30
47779;DHT22;33538;48.432;11.350;2023-06-14T13:56:08;21.20;53.30
47779;DHT22;33538;48.432;11.350;2023-06-14T13:58:35;21.20;53.40
47779;DHT22;33538;48.432;11.350;2023-06-14T14:01:03;21.30;52.70
47779;DHT22;33538;48.432;11.350;2023-06-14T14:03:30;21.30;53.00
47779;DHT22;33538;48.432;11.350;2023-06-14T14:05:57;21.30;52.90
47779;DHT22;33538;48.432;11.350;2023-06-14T14:08:27;21.30;52.90
47779;DHT22;33538;48.432;11.350;2023-06-14T14:10:54;21.30;52.90
47779;DHT22;33538;48.432;11.350;2023-06-14T14:13:21;21.30;52.90
47779;DHT22;33538;48.432;11.350;2023-06-14T14:15:48;21.30;52.90
47779;DHT22;33538;48.432;11.350;2023-06-14T14:18:16;21.30;52.90
47779;DHT22;33538;48.432;11.350;2023-06-14T14:20:43;21.30;52.90
47779;DHT22;33538;48.432;11.350;2023-06-14T14:23:10;21.30;52.80
47779;DHT22;33538;48.432;11.350;2023-06-14T14:25:36;21.30;52.90
47779;DHT22;33538;48.432;11.350;2023-06-14T14:28:03;21.30;52.90
47779;DHT22;33538;48.432;11.350;2023-06-14T14:30:30;21.30;53.00
47779;DHT22;33538;48.432;11.350;2023-06-14T14:32:57;21.30;53.10
47779;DHT22;33538;48.432;11.350;2023-06-14T14:35:25;21.30;53.10
47779;DHT22;33538;48.432;11.350;2023-06-14T14:37:52;21.30;53.00
47779;DHT22;33538;48.432;11.350;2023-06-14T14:40:19;21.30;53.00
47779;DHT22;33538;48.432;11.350;2023-06-14T14:42:45;21.30;53.20
47779;DHT22;33538;48.432;11.350;2023-06-14T14:45:12;21.50;51.40
47779;DHT22;33538;48.432;11.350;2023-06-14T14:47:39;21.50;52.00
47779;DHT22;33538;48.432;11.350;2023-06-14T14:50:06;21.50;52.10
47779;DHT22;33538;48.432;11.350;2023-06-14T14:52:35;21.50;51.80
47779;DHT22;33538;48.432;11.350;2023-06-14T14:55:02;21.60;51.80
47779;DHT22;33538;48.432;11.350;2023-06-14T14:57:29;21.60;51.00
47779;DHT22;33538;48.432;11.350;2023-06-14T14:59:55;21.60;51.30
47779;DHT22;33538;48.432;11.350;2023-06-14T15:02:22;21.60;51.40
47779;DHT22;33538;48.432;11.350;2023-06-14T15:04:49;21.60;51.50
47779;DHT22;33538;48.432;11.350;2023-06-14T15:07:16;21.60;52.10
47779;DHT22;33538;48.432;11.350;2023-06-14T15:09:44;21.60;51.50
47779;DHT22;33538;48.432;11.350;2023-06-14T15:12:11;21.60;51.50
47779;DHT22;33538;48.432;11.350;2023-06-14T15:14:37;21.50;51.60
47779;DHT22;33538;48.432;11.350;2023-06-14T15:17:05;21.50;51.70
47779;DHT22;33538;48.432;11.350;2023-06-14T15:19:34;21.50;51.70